createdAt,value
2023-03-06T00:00:47.148Z,4.40
2023-03-06T00:03:14.490Z,4.40
2023-03-06T00:05:42.227Z,4.40
2023-03-06T00:08:09.580Z,4.30
2023-03-06T00:10:36.975Z,4.40
2023-03-06T00:13:06.441Z,4.30
2023-03-06T00:15:34.016Z,4.30
2023-03-06T00:18:04.046Z,4.30
2023-03-06T00:20:31.374Z,4.30
2023-03-06T00:22:58.756Z,4.30
2023-03-06T00:25:26.081Z,4.30
2023-03-06T00:27:53.459Z,4.30
2023-03-06T00:30:22.337Z,4.30
2023-03-06T00:32:49.712Z,4.30
2023-03-06T00:35:17.191Z,4.30
2023-03-06T00:37:44.642Z,4.30
2023-03-06T00:40:14.198Z,4.30
2023-03-06T00:42:41.520Z,4.30
2023-03-06T00:45:09.306Z,4.30
2023-03-06T00:47:36.703Z,4.30
2023-03-06T00:50:04.901Z,4.40
2023-03-06T00:52:32.207Z,4.40
2023-03-06T00:54:59.531Z,4.30
2023-03-06T00:57:26.858Z,4.30
2023-03-06T00:59:54.162Z,4.30
2023-03-06T01:02:21.628Z,4.30
2023-03-06T01:04:48.966Z,4.20
2023-03-06T01:07:16.322Z,4.30
2023-03-06T01:09:43.628Z,4.20
2023-03-06T01:12:10.981Z,4.20
2023-03-06T01:14:38.340Z,4.30
2023-03-06T01:17:05.718Z,4.30
2023-03-06T01:19:33.089Z,4.30
2023-03-06T01:22:00.363Z,4.30
2023-03-06T01:24:28.594Z,4.30
2023-03-06T01:26:57.152Z,4.30
2023-03-06T01:29:26.347Z,4.40
2023-03-06T01:31:53.698Z,4.30
2023-03-06T01:34:21.284Z,4.30
2023-03-06T01:36:48.653Z,4.40
2023-03-06T01:39:15.944Z,4.30
2023-03-06T01:41:43.260Z,4.30
2023-03-06T01:44:13.614Z,4.30
2023-03-06T01:46:44.698Z,4.30
2023-03-06T01:49:12.051Z,4.30
2023-03-06T01:51:44.373Z,4.30
2023-03-06T01:54:35.744Z,4.30
2023-03-06T01:57:20.896Z,4.20
2023-03-06T01:59:51.536Z,4.20
2023-03-06T02:02:19.048Z,4.20
2023-03-06T02:04:46.398Z,4.30
2023-03-06T02:07:14.363Z,4.30
2023-03-06T02:09:41.673Z,4.30
2023-03-06T02:12:11.113Z,4.30
2023-03-06T02:14:39.083Z,4.30
2023-03-06T02:17:07.198Z,4.20
2023-03-06T02:20:11.437Z,4.20
2023-03-06T02:22:47.420Z,4.20
2023-03-06T02:25:41.389Z,4.20
2023-03-06T02:28:10.846Z,4.20
2023-03-06T02:30:40.179Z,4.20
2023-03-06T02:33:07.530Z,4.20
2023-03-06T02:35:35.889Z,4.20
2023-03-06T02:38:06.551Z,4.10
2023-03-06T02:40:33.914Z,4.10
2023-03-06T02:43:01.645Z,4.10
2023-03-06T02:45:36.210Z,4.10
2023-03-06T02:48:03.914Z,4.00
2023-03-06T02:50:31.389Z,4.00
2023-03-06T02:52:58.721Z,4.10
2023-03-06T02:55:26.092Z,4.00
2023-03-06T02:57:55.297Z,4.00
2023-03-06T03:00:24.216Z,4.00
2023-03-06T03:02:51.619Z,4.00
2023-03-06T03:05:20.455Z,4.00
2023-03-06T03:07:53.882Z,3.90
2023-03-06T03:10:21.249Z,4.00
2023-03-06T03:12:49.189Z,4.00
2023-03-06T03:15:16.850Z,4.00
2023-03-06T03:17:44.210Z,4.00
2023-03-06T03:20:13.699Z,4.10
2023-03-06T03:22:41.060Z,4.00
2023-03-06T03:25:08.957Z,4.00
2023-03-06T03:27:37.109Z,4.00
2023-03-06T03:30:05.930Z,4.00
2023-03-06T03:32:33.254Z,4.00
2023-03-06T03:35:00.685Z,4.00
2023-03-06T03:37:28.804Z,4.00
2023-03-06T03:39:56.574Z,4.00
2023-03-06T03:42:23.904Z,4.00
2023-03-06T03:44:51.213Z,4.00
2023-03-06T03:47:21.146Z,4.00
2023-03-06T03:49:49.174Z,4.00
2023-03-06T03:52:16.542Z,4.00
2023-03-06T03:54:43.915Z,4.00
2023-03-06T03:57:11.470Z,4.00
2023-03-06T03:59:43.062Z,4.00
2023-03-06T04:02:17.588Z,4.00
2023-03-06T04:04:58.997Z,4.00
2023-03-06T04:07:26.835Z,4.00
2023-03-06T04:09:54.690Z,4.00
2023-03-06T04:12:22.371Z,4.00
2023-03-06T04:14:49.918Z,4.00
2023-03-06T04:17:17.646Z,4.00
2023-03-06T04:19:45.291Z,4.00
2023-03-06T04:22:12.645Z,4.00
2023-03-06T04:24:40.484Z,4.00
2023-03-06T04:27:07.870Z,4.00
2023-03-06T04:29:35.217Z,3.90
2023-03-06T04:32:03.027Z,3.90
2023-03-06T04:34:30.457Z,3.90
2023-03-06T04:36:57.842Z,3.90
2023-03-06T04:39:25.521Z,3.90
2023-03-06T04:41:52.970Z,3.90
2023-03-06T04:44:20.305Z,3.90
2023-03-06T04:46:47.621Z,3.90
2023-03-06T04:49:14.957Z,3.80
2023-03-06T04:51:42.245Z,3.80
2023-03-06T04:54:09.582Z,3.80
2023-03-06T04:56:37.034Z,3.80
2023-03-06T04:59:05.042Z,3.80
2023-03-06T05:01:32.332Z,3.80
2023-03-06T05:03:59.622Z,3.80
2023-03-06T05:06:26.922Z,3.80
2023-03-06T05:08:54.272Z,3.80
2023-03-06T05:11:21.572Z,3.80
2023-03-06T05:13:49.415Z,3.80
2023-03-06T05:16:16.845Z,3.80
2023-03-06T05:18:44.187Z,3.80
2023-03-06T05:21:11.541Z,3.80
2023-03-06T05:23:38.967Z,3.80
2023-03-06T05:26:10.220Z,3.80
2023-03-06T05:28:37.624Z,3.80
2023-03-06T05:31:05.230Z,3.80
2023-03-06T05:33:35.608Z,3.80
2023-03-06T05:36:03.138Z,3.80
2023-03-06T05:38:30.496Z,3.80
2023-03-06T05:40:57.789Z,3.80
2023-03-06T05:43:25.166Z,3.80
2023-03-06T05:46:03.188Z,3.80
2023-03-06T05:48:30.697Z,3.80
2023-03-06T05:50:58.899Z,3.80
2023-03-06T05:53:26.824Z,3.80
2023-03-06T05:56:08.814Z,3.80
2023-03-06T05:58:36.350Z,3.80
2023-03-06T06:01:10.484Z,3.80
2023-03-06T06:03:38.263Z,3.80
2023-03-06T06:06:09.210Z,3.80
2023-03-06T06:08:36.665Z,3.80
2023-03-06T06:11:07.908Z,3.80
2023-03-06T06:13:35.427Z,3.90
2023-03-06T06:16:13.396Z,3.90
2023-03-06T06:18:41.529Z,3.80
2023-03-06T06:21:09.975Z,3.90
2023-03-06T06:23:37.338Z,3.90
2023-03-06T06:26:06.371Z,3.90
2023-03-06T06:28:33.867Z,3.90
2023-03-06T06:31:06.994Z,4.00
2023-03-06T06:33:34.458Z,4.00
2023-03-06T06:36:01.821Z,4.10
2023-03-06T06:38:29.168Z,4.20
2023-03-06T06:41:29.167Z,4.20
2023-03-06T06:43:43.785Z,4.10
2023-03-06T06:46:41.876Z,4.20
2023-03-06T06:49:00.109Z,4.20
2023-03-06T06:51:27.472Z,4.20
2023-03-06T06:53:54.849Z,4.20
2023-03-06T06:56:22.142Z,4.20
2023-03-06T06:58:52.473Z,4.20
2023-03-06T07:01:19.809Z,4.20
2023-03-06T07:03:47.235Z,4.20
2023-03-06T07:06:14.630Z,4.30
2023-03-06T07:08:41.906Z,4.30
2023-03-06T07:11:11.773Z,4.40
2023-03-06T07:13:39.173Z,4.40
2023-03-06T07:16:07.118Z,4.40
2023-03-06T07:18:34.512Z,4.40
2023-03-06T07:21:02.043Z,4.40
2023-03-06T07:23:30.577Z,4.50
2023-03-06T07:25:58.019Z,4.50
2023-03-06T07:28:25.593Z,4.50
2023-03-06T07:30:54.799Z,4.50
2023-03-06T07:33:22.171Z,4.50
2023-03-06T07:35:49.491Z,4.50
2023-03-06T07:38:16.924Z,4.60
2023-03-06T07:40:44.314Z,4.60
2023-03-06T07:43:19.205Z,4.70
2023-03-06T07:45:59.678Z,4.70
2023-03-06T07:48:27.445Z,4.80
2023-03-06T07:50:56.864Z,4.80
2023-03-06T07:53:24.769Z,4.80
2023-03-06T07:55:52.396Z,4.80
2023-03-06T07:58:19.789Z,4.80
2023-03-06T08:00:47.098Z,4.80
2023-03-06T08:03:14.555Z,4.80
2023-03-06T08:05:42.070Z,4.90
2023-03-06T08:08:09.398Z,4.90
2023-03-06T08:10:36.795Z,4.90
2023-03-06T08:13:04.334Z,4.90
2023-03-06T08:15:31.615Z,4.90
2023-03-06T08:17:58.985Z,4.90
2023-03-06T08:20:26.321Z,4.90
2023-03-06T08:22:53.684Z,4.90
2023-03-06T08:25:20.969Z,4.90
2023-03-06T08:27:48.463Z,4.90
2023-03-06T08:30:16.049Z,4.90
2023-03-06T08:32:43.378Z,5.00
2023-03-06T08:35:15.044Z,4.90
2023-03-06T08:37:42.405Z,5.00
2023-03-06T08:40:10.537Z,4.90
2023-03-06T08:42:44.555Z,5.00
2023-03-06T08:45:12.094Z,5.00
2023-03-06T08:47:39.531Z,5.10
2023-03-06T08:50:07.137Z,5.20
2023-03-06T08:52:34.414Z,5.20
2023-03-06T08:55:03.540Z,5.30
2023-03-06T08:57:30.965Z,5.40
2023-03-06T08:59:58.274Z,5.40
2023-03-06T09:02:25.592Z,5.50
2023-03-06T09:04:53.924Z,5.50
2023-03-06T09:07:21.208Z,5.60
2023-03-06T09:09:48.503Z,5.60
2023-03-06T09:12:16.042Z,5.70
2023-03-06T09:14:43.397Z,5.60
2023-03-06T09:17:10.703Z,5.60
2023-03-06T09:19:38.519Z,5.60
2023-03-06T09:22:05.987Z,5.70
2023-03-06T09:24:33.332Z,5.80
2023-03-06T09:27:00.756Z,5.80
2023-03-06T09:29:28.226Z,5.90
2023-03-06T09:31:55.609Z,5.80
2023-03-06T09:34:22.888Z,5.90
2023-03-06T09:36:56.411Z,5.90
2023-03-06T09:39:25.419Z,6.00
2023-03-06T09:41:52.787Z,5.90
2023-03-06T09:44:27.766Z,5.90
2023-03-06T09:46:55.090Z,5.90
2023-03-06T09:49:41.152Z,5.90
2023-03-06T09:52:11.324Z,5.90
2023-03-06T09:54:46.182Z,5.90
2023-03-06T09:57:31.634Z,6.00
2023-03-06T10:00:27.012Z,6.10
2023-03-06T10:03:05.271Z,6.10
2023-03-06T10:05:39.291Z,6.10
2023-03-06T10:08:16.770Z,6.20
2023-03-06T10:10:49.369Z,6.20
2023-03-06T10:13:20.986Z,6.30
2023-03-06T10:15:48.399Z,6.30
2023-03-06T10:18:15.946Z,6.40
2023-03-06T10:21:07.398Z,6.40
2023-03-06T10:23:54.374Z,6.40
2023-03-06T10:26:24.602Z,6.40
2023-03-06T10:28:51.940Z,6.30
2023-03-06T10:31:25.027Z,6.20
2023-03-06T10:34:16.545Z,6.20
2023-03-06T10:36:43.876Z,6.20
2023-03-06T10:39:21.741Z,6.20
2023-03-06T10:41:49.373Z,6.20
2023-03-06T10:44:17.392Z,6.20
2023-03-06T10:46:46.797Z,6.20
2023-03-06T10:49:51.910Z,6.20
2023-03-06T10:52:22.953Z,6.20
2023-03-06T10:54:50.316Z,6.20
2023-03-06T10:57:31.010Z,6.10
2023-03-06T10:59:59.255Z,6.10
2023-03-06T11:02:29.444Z,6.10
2023-03-06T11:04:57.390Z,6.10
2023-03-06T11:07:29.138Z,6.10
2023-03-06T11:10:02.724Z,6.00
2023-03-06T11:12:33.942Z,6.00
2023-03-06T11:15:10.086Z,6.00
2023-03-06T11:17:48.178Z,6.10
2023-03-06T11:20:24.842Z,6.00
2023-03-06T11:22:56.310Z,6.00
2023-03-06T11:25:28.249Z,6.00
2023-03-06T11:28:21.125Z,6.10
2023-03-06T11:31:18.869Z,6.20
2023-03-06T11:33:49.235Z,6.30
2023-03-06T11:36:23.229Z,6.40
2023-03-06T11:38:51.944Z,6.50
2023-03-06T11:41:25.089Z,6.50
2023-03-06T11:44:14.296Z,6.60
2023-03-06T11:46:49.934Z,6.50
2023-03-06T11:49:29.026Z,6.40
2023-03-06T11:51:57.936Z,6.40
2023-03-06T11:54:25.228Z,6.20
2023-03-06T11:57:02.264Z,6.10
2023-03-06T11:59:47.692Z,6.00
2023-03-06T12:02:24.802Z,5.90
2023-03-06T12:05:26.529Z,5.80
2023-03-06T12:08:02.221Z,5.80
2023-03-06T12:10:39.053Z,5.70
2023-03-06T12:13:40.026Z,5.70
2023-03-06T12:16:31.703Z,5.60
2023-03-06T12:19:11.175Z,5.60
2023-03-06T12:22:16.979Z,5.60
2023-03-06T12:25:20.381Z,5.60
2023-03-06T12:28:22.868Z,5.60
2023-03-06T12:30:52.933Z,5.70
2023-03-06T12:33:50.150Z,5.70
2023-03-06T12:36:32.581Z,5.90
2023-03-06T12:39:15.721Z,6.00
2023-03-06T12:41:52.084Z,6.00
2023-03-06T12:44:36.364Z,6.00
2023-03-06T12:47:11.311Z,6.00
2023-03-06T12:49:43.428Z,5.90
2023-03-06T12:52:21.581Z,5.90
2023-03-06T12:54:52.292Z,5.90
2023-03-06T12:57:19.618Z,6.00
2023-03-06T12:59:48.514Z,6.00
2023-03-06T13:02:47.353Z,5.90
2023-03-06T13:05:26.665Z,5.90
2023-03-06T13:08:19.916Z,5.70
2023-03-06T13:11:01.323Z,5.60
2023-03-06T13:13:41.669Z,5.60
2023-03-06T13:16:21.094Z,5.50
2023-03-06T13:18:54.935Z,5.50
2023-03-06T13:21:41.135Z,5.50
2023-03-06T13:24:37.672Z,5.50
2023-03-06T13:27:11.973Z,5.50
2023-03-06T13:29:39.245Z,5.50
2023-03-06T13:32:14.079Z,5.60
2023-03-06T13:34:42.470Z,5.60
2023-03-06T13:37:19.857Z,5.60
2023-03-06T13:39:56.709Z,5.60
2023-03-06T13:42:37.416Z,5.70
2023-03-06T13:45:08.460Z,5.60
2023-03-06T13:48:01.320Z,5.60
2023-03-06T13:50:47.057Z,5.60
2023-03-06T13:53:32.485Z,5.60
2023-03-06T13:55:59.783Z,5.60
2023-03-06T13:59:03.841Z,5.50
2023-03-06T14:02:10.347Z,5.50
2023-03-06T14:04:56.721Z,5.50
2023-03-06T14:07:29.173Z,5.60
2023-03-06T14:10:18.282Z,5.60
2023-03-06T14:12:51.746Z,5.60
2023-03-06T14:15:21.368Z,5.60
2023-03-06T14:18:14.802Z,5.60
2023-03-06T14:20:43.909Z,5.60
2023-03-06T14:23:32.221Z,5.60
2023-03-06T14:26:17.661Z,5.60
2023-03-06T14:28:51.869Z,5.70
2023-03-06T14:31:20.034Z,5.70
2023-03-06T14:33:57.191Z,5.70
2023-03-06T14:36:45.786Z,5.80
2023-03-06T14:39:19.761Z,5.80
2023-03-06T14:41:47.101Z,5.90
2023-03-06T14:44:16.817Z,5.90
2023-03-06T14:46:45.554Z,6.00
2023-03-06T14:49:17.834Z,6.00
2023-03-06T14:51:53.736Z,6.00
2023-03-06T14:54:31.870Z,6.00
2023-03-06T14:57:06.041Z,6.00
2023-03-06T14:59:35.142Z,6.00
2023-03-06T15:02:06.050Z,6.00
2023-03-06T15:04:44.127Z,6.00
2023-03-06T15:07:19.486Z,5.90
2023-03-06T15:09:51.618Z,5.90
2023-03-06T15:12:19.803Z,5.90
2023-03-06T15:15:01.670Z,5.90
2023-03-06T15:17:38.575Z,5.90
2023-03-06T15:20:09.660Z,5.90
2023-03-06T15:22:43.352Z,5.90
2023-03-06T15:25:32.272Z,5.90
2023-03-06T15:28:04.619Z,5.90
2023-03-06T15:30:36.049Z,5.90
2023-03-06T15:33:25.311Z,5.90
2023-03-06T15:36:01.781Z,5.80
2023-03-06T15:38:36.232Z,5.80
2023-03-06T15:41:05.054Z,5.80
2023-03-06T15:43:38.090Z,5.80
2023-03-06T15:46:06.427Z,5.80
2023-03-06T15:48:36.629Z,5.80
2023-03-06T15:51:04.902Z,5.80
2023-03-06T15:53:32.256Z,5.90
2023-03-06T15:55:59.629Z,5.80
2023-03-06T15:58:26.941Z,5.80
2023-03-06T16:00:54.293Z,5.80
2023-03-06T16:03:21.689Z,5.80
2023-03-06T16:05:48.991Z,5.80
2023-03-06T16:08:16.366Z,5.80
2023-03-06T16:10:44.295Z,5.80
2023-03-06T16:13:13.883Z,5.80
2023-03-06T16:15:48.571Z,5.80
2023-03-06T16:18:15.954Z,5.80
2023-03-06T16:20:43.470Z,5.80
2023-03-06T16:23:10.914Z,5.70
2023-03-06T16:25:39.915Z,5.70
2023-03-06T16:28:15.036Z,5.70
2023-03-06T16:30:43.266Z,5.70
2023-03-06T16:33:11.409Z,5.70
2023-03-06T16:35:39.179Z,5.70
2023-03-06T16:38:06.565Z,5.70
2023-03-06T16:40:38.007Z,5.80
2023-03-06T16:43:05.427Z,5.80
2023-03-06T16:45:35.692Z,5.80
2023-03-06T16:48:03.174Z,5.70
2023-03-06T16:50:36.568Z,5.60
2023-03-06T16:53:04.180Z,5.60
2023-03-06T16:55:31.534Z,5.60
2023-03-06T16:57:58.875Z,5.60
2023-03-06T17:00:31.083Z,5.60
2023-03-06T17:02:59.091Z,5.50
2023-03-06T17:05:26.667Z,5.50
2023-03-06T17:07:54.225Z,5.50
2023-03-06T17:10:25.572Z,5.50
2023-03-06T17:12:53.325Z,5.50
2023-03-06T17:15:20.994Z,5.50
2023-03-06T17:17:48.666Z,5.40
2023-03-06T17:20:16.080Z,5.40
2023-03-06T17:22:43.420Z,5.40
2023-03-06T17:25:10.956Z,5.40
2023-03-06T17:27:38.369Z,5.40
2023-03-06T17:30:06.411Z,5.30
2023-03-06T17:32:34.120Z,5.40
2023-03-06T17:35:01.463Z,5.30
2023-03-06T17:37:28.827Z,5.30
2023-03-06T17:39:56.205Z,5.30
2023-03-06T17:42:23.573Z,5.30
2023-03-06T17:44:52.006Z,5.30
2023-03-06T17:47:19.475Z,5.30
2023-03-06T17:49:46.866Z,5.40
2023-03-06T17:52:14.140Z,5.30
2023-03-06T17:54:41.482Z,5.30
2023-03-06T17:57:08.801Z,5.30
2023-03-06T17:59:36.177Z,5.30
2023-03-06T18:02:03.584Z,5.40
2023-03-06T18:04:31.143Z,5.40
2023-03-06T18:06:58.555Z,5.40
2023-03-06T18:09:26.487Z,5.40
2023-03-06T18:11:53.869Z,5.40
2023-03-06T18:14:21.197Z,5.40
2023-03-06T18:16:48.562Z,5.40
2023-03-06T18:19:16.467Z,5.40
2023-03-06T18:21:43.864Z,5.40
2023-03-06T18:24:12.252Z,5.40
2023-03-06T18:26:42.156Z,5.40
2023-03-06T18:29:09.510Z,5.40
2023-03-06T18:31:38.059Z,5.40
2023-03-06T18:34:07.636Z,5.40
2023-03-06T18:36:35.072Z,5.40
2023-03-06T18:39:03.832Z,5.30
2023-03-06T18:41:31.425Z,5.40
2023-03-06T18:44:00.086Z,5.40
2023-03-06T18:46:35.261Z,5.40
2023-03-06T18:49:02.818Z,5.40
2023-03-06T18:51:30.378Z,5.40
2023-03-06T18:53:58.613Z,5.40
2023-03-06T18:56:26.038Z,5.30
2023-03-06T18:58:53.874Z,5.30
2023-03-06T19:01:22.424Z,5.30
2023-03-06T19:03:49.975Z,5.30
2023-03-06T19:06:17.519Z,5.30
2023-03-06T19:08:44.839Z,5.30
2023-03-06T19:11:16.118Z,5.30
2023-03-06T19:13:43.587Z,5.30
2023-03-06T19:16:21.190Z,5.30
2023-03-06T19:18:48.548Z,5.20
2023-03-06T19:21:17.820Z,5.20
2023-03-06T19:23:45.228Z,5.20
2023-03-06T19:26:12.841Z,5.20
2023-03-06T19:28:41.017Z,5.20
2023-03-06T19:31:20.116Z,5.30
2023-03-06T19:33:48.364Z,5.30
2023-03-06T19:36:16.676Z,5.30
2023-03-06T19:38:44.078Z,5.20
2023-03-06T19:41:13.564Z,5.30
2023-03-06T19:43:41.794Z,5.30
2023-03-06T19:46:15.453Z,5.30
2023-03-06T19:48:42.879Z,5.30
2023-03-06T19:51:10.313Z,5.20
2023-03-06T19:53:38.765Z,5.20
2023-03-06T19:56:10.391Z,5.10
2023-03-06T19:58:38.332Z,5.10
2023-03-06T20:01:10.369Z,5.10
2023-03-06T20:03:38.046Z,5.10
2023-03-06T20:06:09.186Z,5.10
2023-03-06T20:08:36.769Z,5.10
2023-03-06T20:11:04.484Z,5.00
2023-03-06T20:13:31.891Z,5.00
2023-03-06T20:16:02.946Z,5.00
2023-03-06T20:18:30.292Z,5.00
2023-03-06T20:21:01.239Z,5.00
2023-03-06T20:23:28.622Z,5.00
2023-03-06T20:25:55.936Z,5.00
2023-03-06T20:28:23.296Z,5.00
2023-03-06T20:30:50.633Z,5.00
2023-03-06T20:33:19.603Z,5.10
2023-03-06T20:35:46.921Z,5.10
2023-03-06T20:38:15.142Z,5.10
2023-03-06T20:40:42.777Z,5.10
2023-03-06T20:43:10.119Z,5.10
2023-03-06T20:45:37.473Z,5.20
2023-03-06T20:48:04.915Z,5.10
2023-03-06T20:50:32.210Z,5.10
2023-03-06T20:52:59.523Z,5.10
2023-03-06T20:55:26.853Z,5.10
2023-03-06T20:57:54.194Z,5.10
2023-03-06T21:00:21.612Z,5.20
2023-03-06T21:02:48.894Z,5.10
2023-03-06T21:05:16.279Z,5.30
2023-03-06T21:07:43.624Z,5.30
2023-03-06T21:10:11.662Z,5.20
2023-03-06T21:12:39.044Z,5.20
2023-03-06T21:15:07.019Z,5.20
2023-03-06T21:17:34.325Z,5.20
2023-03-06T21:20:01.705Z,5.30
2023-03-06T21:22:30.242Z,5.30
2023-03-06T21:24:57.600Z,5.20
2023-03-06T21:27:25.006Z,5.20
2023-03-06T21:29:52.327Z,5.20
2023-03-06T21:32:19.725Z,5.20
2023-03-06T21:34:47.081Z,5.20
2023-03-06T21:37:17.488Z,5.20
2023-03-06T21:39:44.784Z,5.10
2023-03-06T21:42:12.148Z,5.10
2023-03-06T21:44:39.468Z,5.10
2023-03-06T21:47:06.801Z,5.10
2023-03-06T21:49:34.112Z,5.10
2023-03-06T21:52:01.453Z,5.10
2023-03-06T21:54:29.373Z,5.10
2023-03-06T21:56:57.535Z,5.00
2023-03-06T21:59:24.895Z,5.00
2023-03-06T22:01:52.243Z,5.00
2023-03-06T22:04:19.608Z,5.00
2023-03-06T22:06:46.979Z,5.00
2023-03-06T22:09:16.168Z,5.00
2023-03-06T22:11:43.499Z,5.00
2023-03-06T22:14:10.868Z,5.00
2023-03-06T22:16:38.215Z,5.00
2023-03-06T22:19:05.633Z,5.00
2023-03-06T22:21:33.008Z,5.00
2023-03-06T22:24:00.397Z,4.90
2023-03-06T22:26:28.663Z,4.90
2023-03-06T22:28:56.167Z,4.90
2023-03-06T22:31:24.965Z,4.90
2023-03-06T22:33:53.439Z,4.90
2023-03-06T22:36:20.834Z,4.90
2023-03-06T22:38:48.435Z,4.90
2023-03-06T22:41:16.903Z,4.90
2023-03-06T22:43:44.297Z,4.90
2023-03-06T22:46:13.687Z,4.90
2023-03-06T22:48:41.113Z,4.90
2023-03-06T22:51:10.481Z,5.00
2023-03-06T22:53:37.934Z,5.00
2023-03-06T22:56:06.536Z,5.00
2023-03-06T22:58:36.830Z,4.90
2023-03-06T23:01:11.370Z,4.90
2023-03-06T23:03:39.884Z,4.90
2023-03-06T23:06:12.766Z,4.90
2023-03-06T23:08:40.340Z,4.90
2023-03-06T23:11:09.257Z,4.90
2023-03-06T23:13:55.040Z,4.90
2023-03-06T23:16:40.680Z,4.80
2023-03-06T23:19:26.719Z,4.90
2023-03-06T23:22:14.264Z,4.90
2023-03-06T23:25:00.519Z,4.80
2023-03-06T23:27:29.363Z,4.80
2023-03-06T23:29:58.886Z,4.80
2023-03-06T23:32:26.348Z,4.80
2023-03-06T23:34:53.696Z,4.70
2023-03-06T23:37:21.061Z,4.70
2023-03-06T23:39:48.472Z,4.80
2023-03-06T23:42:15.779Z,4.80
2023-03-06T23:44:43.264Z,4.80
2023-03-06T23:47:10.573Z,4.80
2023-03-06T23:49:37.927Z,4.80
2023-03-06T23:52:05.413Z,4.80
2023-03-06T23:54:34.284Z,4.70
2023-03-06T23:57:01.621Z,4.70
2023-03-06T23:59:28.900Z,4.80
